Time;durP1;ratioP1;P1;durP2;ratioP2;P2;SDS_P1;SDS_P2;PMS_P1;PMS_P2;Temp;Humidity;BMP_temperature;BMP_pressure;BME280_temperature;BME280_humidity;BME280_pressure;Samples;Min_cycle;Max_cycle;Signal;HPM_P1;HPM_P2
2021/08/12 00:02:24;;;;;;;11.90;8.45;;;;;;;17.77;79.73;101966.25;5096299;27;20517;-61
2021/08/12 00:04:51;;;;;;;13.07;8.57;;;;;;;17.71;79.82;101957.13;5102461;27;20052;-62
2021/08/12 00:07:18;;;;;;;14.43;9.07;;;;;;;17.83;79.70;101956.78;5100855;27;20734;-62
2021/08/12 00:09:44;;;;;;;12.70;8.52;;;;;;;17.93;78.46;101955.66;5105674;27;20467;-63
2021/08/12 00:12:11;;;;;;;13.02;8.40;;;;;;;18.01;77.52;101954.81;5097899;27;20121;-62
2021/08/12 00:14:38;;;;;;;13.38;8.55;;;;;;;17.87;78.72;101953.66;5094256;27;20559;-62
2021/08/12 00:17:05;;;;;;;14.95;9.45;;;;;;;17.90;79.12;101948.03;5104876;27;20054;-60
2021/08/12 00:19:31;;;;;;;14.80;9.23;;;;;;;17.98;78.31;101944.53;5101384;27;20079;-62
2021/08/12 00:21:58;;;;;;;15.98;8.90;;;;;;;17.96;78.09;101954.50;5100800;27;20143;-62
2021/08/12 00:24:24;;;;;;;12.98;8.20;;;;;;;17.90;78.10;101948.03;5094881;27;20059;-62
2021/08/12 00:26:51;;;;;;;30.55;20.42;;;;;;;17.87;78.62;101940.38;5096723;27;20127;-62
2021/08/12 00:29:17;;;;;;;24.48;15.05;;;;;;;17.84;78.35;101938.09;5111026;27;20046;-62
2021/08/12 00:31:44;;;;;;;15.50;10.65;;;;;;;17.76;78.34;101936.25;5094181;27;20047;-62
2021/08/12 00:34:11;;;;;;;13.75;8.80;;;;;;;17.86;77.79;101943.25;5106523;27;20597;-61
2021/08/12 00:36:37;;;;;;;13.05;8.15;;;;;;;17.88;77.87;101939.41;5096358;27;20162;-60
2021/08/12 00:39:04;;;;;;;11.90;7.47;;;;;;;17.84;77.67;101947.84;5104508;27;20051;-62
2021/08/12 00:41:35;;;;;;;14.02;8.27;;;;;;;17.87;77.66;101939.56;5092156;27;20097;-62
2021/08/12 00:44:02;;;;;;;11.30;7.30;;;;;;;17.88;77.62;101943.91;5103303;27;20162;-62
2021/08/12 00:46:28;;;;;;;12.23;7.88;;;;;;;17.67;78.36;101941.72;5085240;27;20069;-62
2021/08/12 00:48:55;;;;;;;13.02;7.30;;;;;;;17.66;78.24;101945.34;5100977;27;20136;-61
2021/08/12 00:51:21;;;;;;;11.43;7.47;;;;;;;17.69;78.62;101929.94;5100281;27;20234;-62
2021/08/12 00:53:48;;;;;;;9.60;6.40;;;;;;;17.74;77.92;101927.63;5090295;27;20498;-62
2021/08/12 00:56:16;;;;;;;10.48;6.88;;;;;;;17.68;77.72;101925.63;5104587;27;20130;-62
2021/08/12 00:58:42;;;;;;;10.38;7.57;;;;;;;17.66;77.86;101937.38;5102377;27;20522;-62
2021/08/12 01:01:09;;;;;;;12.02;7.50;;;;;;;17.48;77.84;101925.09;5105127;27;20051;-61
2021/08/12 01:03:36;;;;;;;19.70;11.70;;;;;;;17.50;78.26;101924.94;5103097;27;20406;-61
2021/08/12 01:06:06;;;;;;;18.98;12.65;;;;;;;17.22;79.26;101921.78;5096317;27;20055;-61
2021/08/12 01:08:35;;;;;;;14.60;7.70;;;;;;;17.50;78.57;101931.06;5103448;27;20051;-62
2021/08/12 01:11:23;;;;;;;8.60;6.35;;;;;;;17.42;78.98;101924.94;5093497;27;20082;-61
2021/08/12 01:14:07;;;;;;;10.32;6.57;;;;;;;17.37;78.69;101928.94;5102688;27;20385;-61
2021/08/12 01:16:39;;;;;;;9.73;6.43;;;;;;;17.29;79.80;101930.72;5093804;27;20047;-62
2021/08/12 01:19:43;;;;;;;9.60;6.22;;;;;;;17.22;80.24;101938.50;5102327;27;20130;-61
2021/08/12 01:22:12;;;;;;;9.30;5.82;;;;;;;17.44;78.98;101937.03;5093731;27;20123;-61
2021/08/12 01:24:45;;;;;;;9.85;6.93;;;;;;;17.44;78.60;101937.03;5102644;27;20142;-61
2021/08/12 01:27:14;;;;;;;10.55;6.15;;;;;;;17.38;78.50;101930.56;5099723;27;20133;-61
2021/08/12 01:29:55;;;;;;;10.95;6.90;;;;;;;17.48;77.81;101933.06;5101527;27;20130;-61
2021/08/12 01:32:27;;;;;;;9.50;6.38;;;;;;;17.50;78.07;101939.03;5095831;27;20130;-61
2021/08/12 01:34:59;;;;;;;9.50;6.50;;;;;;;17.66;76.80;101932.94;5102708;27;20446;-61
2021/08/12 01:37:32;;;;;;;9.45;6.45;;;;;;;17.68;76.03;101940.69;5103877;27;20051;-61
2021/08/12 01:40:01;;;;;;;10.25;6.93;;;;;;;17.66;76.67;101948.00;5096789;27;20142;-61
2021/08/12 01:42:28;;;;;;;13.23;6.97;;;;;;;17.37;77.78;101938.72;5104725;27;20138;-60
2021/08/12 01:44:58;;;;;;;8.65;6.50;;;;;;;17.38;78.83;101948.31;5091422;27;20554;-62
2021/08/12 01:47:25;;;;;;;12.57;7.10;;;;;;;17.33;78.88;101946.16;5100444;27;20809;-60
2021/08/12 01:49:53;;;;;;;12.52;7.13;;;;;;;17.30;78.77;101938.53;5096709;27;20119;-61
2021/08/12 01:52:21;;;;;;;15.50;7.97;;;;;;;17.62;77.04;101939.56;5106108;27;20138;-61
2021/08/12 01:54:49;;;;;;;12.40;7.25;;;;;;;17.20;79.21;101938.66;5100852;27;20126;-61
2021/08/12 01:57:16;;;;;;;11.13;6.93;;;;;;;17.42;78.50;101948.81;5099855;27;20493;-59
2021/08/12 01:59:44;;;;;;;13.88;8.18;;;;;;;17.56;77.93;101945.50;5094649;27;20057;-60
2021/08/12 02:02:13;;;;;;;12.32;7.75;;;;;;;16.93;80.73;101953.00;5094635;27;20094;-61
2021/08/12 02:04:42;;;;;;;13.25;8.32;;;;;;;16.64;83.30;101940.16;5100110;27;20054;-60
2021/08/12 02:07:11;;;;;;;11.38;7.82;;;;;;;16.60;83.45;101944.06;5095560;27;20068;-61
2021/08/12 02:09:38;;;;;;;13.27;7.38;;;;;;;16.49;84.21;101925.84;5101907;27;20130;-60
2021/08/12 02:12:08;;;;;;;12.18;7.72;;;;;;;16.40;85.12;101917.81;5102273;27;20105;-61
2021/08/12 02:14:35;;;;;;;12.50;8.32;;;;;;;16.43;84.89;101918.53;5088663;27;20466;-61
2021/08/12 02:17:02;;;;;;;12.95;7.60;;;;;;;16.30;85.91;101924.25;5108051;27;20052;-61
2021/08/12 02:19:29;;;;;;;11.48;7.63;;;;;;;16.33;85.78;101922.13;5093034;27;20491;-61
2021/08/12 02:22:06;;;;;;;13.57;7.43;;;;;;;16.35;85.65;101920.13;5104137;27;20097;-61
2021/08/12 02:24:48;;;;;;;10.50;7.38;;;;;;;16.66;85.39;101932.00;5096681;27;20489;-61
2021/08/12 02:27:20;;;;;;;11.60;7.35;;;;;;;16.51;85.94;101929.97;5101176;27;20454;-61
2021/08/12 02:29:47;;;;;;;14.30;7.40;;;;;;;16.44;86.31;101925.47;5097409;27;20051;-61
2021/08/12 02:32:16;;;;;;;12.35;7.47;;;;;;;16.67;85.56;101921.25;5105319;27;20128;-61
2021/08/12 02:34:43;;;;;;;;;;;;;;;16.74;84.82;101918.78;5101844;28;20102;-61
2021/08/12 02:37:14;;;;;;;12.43;8.00;;;;;;;16.75;84.00;101907.22;5093842;27;19998;-61
2021/08/12 02:39:42;;;;;;;12.35;8.10;;;;;;;16.80;84.15;101911.06;5100750;27;20085;-61
2021/08/12 02:42:09;;;;;;;15.23;8.07;;;;;;;16.76;83.14;101903.59;5095155;27;20130;-61
2021/08/12 02:44:40;;;;;;;15.60;8.75;;;;;;;16.73;83.05;101903.91;5103070;28;20126;-61
2021/08/12 02:47:07;;;;;;;12.73;8.07;;;;;;;16.48;83.93;101902.97;5097834;28;20138;-61
2021/08/12 02:49:42;;;;;;;12.25;8.30;;;;;;;16.50;84.30;101904.47;5102293;28;20142;-61
2021/08/12 02:52:10;;;;;;;12.35;7.45;;;;;;;16.66;84.24;101903.72;5093185;28;20555;-61
2021/08/12 02:54:37;;;;;;;13.07;7.80;;;;;;;16.99;82.28;101898.53;5100752;28;20567;-61
2021/08/12 02:57:05;;;;;;;13.25;7.95;;;;;;;17.03;82.37;101899.88;5098453;28;20673;-61
2021/08/12 02:59:34;;;;;;;10.77;7.55;;;;;;;16.90;82.33;101904.81;5076116;28;20134;-61
2021/08/12 03:02:02;;;;;;;11.70;7.63;;;;;;;16.93;83.80;101902.66;5097518;28;20078;-60
2021/08/12 03:04:29;;;;;;;14.43;8.73;;;;;;;16.54;84.89;101895.25;5087925;28;20059;-59
2021/08/12 03:06:57;;;;;;;13.10;7.78;;;;;;;16.38;86.14;101889.84;5098520;28;20129;-61
2021/08/12 03:09:27;;;;;;;17.83;10.75;;;;;;;16.65;84.57;101895.94;5099805;28;20081;-61
2021/08/12 03:11:56;;;;;;;12.25;9.15;;;;;;;16.57;85.04;101892.25;5099068;28;20124;-57
2021/08/12 03:14:23;;;;;;;13.75;8.68;;;;;;;16.80;83.57;101889.03;5099840;28;20074;-60
2021/08/12 03:16:50;;;;;;;14.50;8.93;;;;;;;16.38;84.75;101895.16;5091446;28;20051;-60
2021/08/12 03:19:17;;;;;;;13.60;8.77;;;;;;;16.39;85.22;101892.34;5094707;28;20584;-61
2021/08/12 03:21:59;;;;;;;13.35;7.97;;;;;;;16.61;84.26;101893.59;5090738;28;20054;-61
2021/08/12 03:24:26;;;;;;;13.02;8.52;;;;;;;16.60;83.95;101897.25;5102508;28;20517;-60
2021/08/12 03:26:54;;;;;;;15.77;8.60;;;;;;;16.79;83.18;101900.59;5095447;28;20138;-61
2021/08/12 03:29:21;;;;;;;18.40;8.77;;;;;;;16.88;82.29;101902.31;5101682;27;20059;-61
2021/08/12 03:31:47;;;;;;;15.60;8.82;;;;;;;16.90;81.87;101905.66;5082838;28;20044;-61
2021/08/12 03:34:14;;;;;;;10.98;7.35;;;;;;;17.01;80.93;101907.16;5095000;27;20052;-61
2021/08/12 03:36:40;;;;;;;13.63;7.93;;;;;;;17.02;79.85;101906.16;5101617;27;20131;-61
2021/08/12 03:39:06;;;;;;;14.18;8.00;;;;;;;17.00;80.37;101900.22;5097108;27;20139;-61
2021/08/12 03:41:33;;;;;;;14.25;8.65;;;;;;;16.76;81.03;101900.94;5104438;27;20414;-60
2021/08/12 03:43:59;;;;;;;14.20;8.80;;;;;;;16.65;82.44;101902.06;5097833;27;20083;-61
2021/08/12 03:46:26;;;;;;;12.68;8.45;;;;;;;16.68;82.89;101909.69;5097314;27;20138;-61
2021/08/12 03:48:53;;;;;;;14.45;9.32;;;;;;;16.69;82.29;101905.22;5103197;27;20044;-61
2021/08/12 03:51:22;;;;;;;13.32;8.50;;;;;;;16.44;83.32;101905.09;5077713;28;20055;-61
2021/08/12 03:53:49;;;;;;;15.63;9.60;;;;;;;16.21;84.20;101902.19;5103724;27;20146;-61
2021/08/12 03:56:15;;;;;;;14.63;8.90;;;;;;;16.64;83.89;101905.72;5096972;27;20083;-60
2021/08/12 03:58:42;;;;;;;14.45;9.15;;;;;;;16.89;80.76;101896.03;5104923;27;20166;-60
2021/08/12 04:01:08;;;;;;;15.68;9.68;;;;;;;17.03;80.55;101896.38;5092105;27;20522;-60
2021/08/12 04:03:35;;;;;;;14.73;9.32;;;;;;;16.67;82.22;101899.25;5097106;27;20059;-61
2021/08/12 04:06:01;;;;;;;14.15;8.95;;;;;;;16.46;83.76;101897.00;5101182;27;20079;-62
2021/08/12 04:08:30;;;;;;;17.67;9.35;;;;;;;16.27;84.14;101908.66;5102522;27;20044;-60
2021/08/12 04:10:57;;;;;;;12.65;8.07;;;;;;;16.13;84.96;101912.72;5098989;27;20516;-61
2021/08/12 04:13:23;;;;;;;18.75;9.80;;;;;;;16.07;86.41;101911.53;5102971;27;20191;-60
2021/08/12 04:15:49;;;;;;;16.33;9.40;;;;;;;16.29;85.23;101912.81;5098890;27;20581;-61
2021/08/12 04:18:16;;;;;;;16.85;9.25;;;;;;;16.37;84.24;101912.03;5092160;27;20787;-61
2021/08/12 04:20:43;;;;;;;15.07;9.40;;;;;;;16.14;85.18;101909.91;5104236;27;20163;-61
2021/08/12 04:23:09;;;;;;;15.15;8.90;;;;;;;16.18;86.05;101910.44;5097570;27;20159;-61
2021/08/12 04:25:35;;;;;;;15.45;9.65;;;;;;;16.22;84.41;101909.13;5104768;27;20138;-61
2021/08/12 04:28:03;;;;;;;13.32;9.20;;;;;;;16.26;84.29;101913.13;5102152;27;20113;-61
2021/08/12 04:30:29;;;;;;;16.80;9.65;;;;;;;16.26;83.26;101912.31;5090975;27;20138;-61
2021/08/12 04:32:56;;;;;;;17.05;9.25;;;;;;;16.34;83.70;101915.81;5101618;27;20058;-61
2021/08/12 04:35:22;;;;;;;14.75;9.10;;;;;;;16.29;83.93;101917.28;5096760;27;20507;-61
2021/08/12 04:37:49;;;;;;;14.00;9.35;;;;;;;16.07;85.27;101914.16;5102559;27;20048;-60
2021/08/12 04:40:17;;;;;;;15.30;8.82;;;;;;;16.28;85.19;101911.16;5094892;27;20058;-60
2021/08/12 04:42:47;;;;;;;16.35;10.00;;;;;;;16.64;83.01;101903.06;5097874;27;20776;-61
2021/08/12 04:45:14;;;;;;;15.52;9.45;;;;;;;16.61;81.76;101906.84;5093009;27;20134;-61
2021/08/12 04:47:41;;;;;;;18.05;10.52;;;;;;;16.33;84.73;101910.69;5106456;27;20079;-61
2021/08/12 04:50:09;;;;;;;16.00;10.15;;;;;;;16.22;85.02;101914.44;5102826;27;20051;-61
2021/08/12 04:52:36;;;;;;;17.52;9.70;;;;;;;16.12;85.86;101916.38;5094426;27;20131;-61
2021/08/12 04:55:03;;;;;;;16.50;9.48;;;;;;;16.33;84.58;101908.88;5085622;28;20047;-61
2021/08/12 04:57:29;;;;;;;17.50;10.15;;;;;;;16.29;84.85;101909.31;5092048;27;20482;-61
2021/08/12 04:59:56;;;;;;;19.42;10.15;;;;;;;16.50;83.38;101915.06;5100168;27;20150;-61
2021/08/12 05:02:22;;;;;;;15.38;9.18;;;;;;;16.75;81.31;101908.03;5092052;28;20052;-61
2021/08/12 05:04:49;;;;;;;14.68;8.45;;;;;;;16.81;81.67;101922.47;5100523;27;20052;-61
2021/08/12 05:07:16;;;;;;;16.92;10.07;;;;;;;16.43;83.06;101924.66;5099629;27;20052;-59
2021/08/12 05:09:42;;;;;;;14.80;9.35;;;;;;;16.07;85.51;101929.22;5096292;27;20056;-61
2021/08/12 05:12:09;;;;;;;14.93;9.60;;;;;;;16.03;86.29;101936.63;5096333;27;20665;-61
2021/08/12 05:14:35;;;;;;;17.40;10.48;;;;;;;16.31;85.95;101926.75;5093709;27;20138;-60
2021/08/12 05:17:03;;;;;;;17.27;9.05;;;;;;;15.95;86.88;101934.75;5103608;27;20100;-59
2021/08/12 05:19:29;;;;;;;20.70;9.93;;;;;;;16.58;83.88;101938.97;5090666;27;20055;-62
2021/08/12 05:21:56;;;;;;;17.67;10.13;;;;;;;16.87;82.37;101939.59;5097109;28;20071;-61
2021/08/12 05:24:22;;;;;;;14.57;9.57;;;;;;;16.26;85.89;101934.31;5093661;28;20082;-61
2021/08/12 05:26:48;;;;;;;17.50;10.02;;;;;;;16.02;87.84;101940.28;5089817;27;20479;-61
2021/08/12 05:29:15;;;;;;;19.63;10.63;;;;;;;15.97;87.92;101935.44;5107000;27;20066;-61
2021/08/12 05:31:41;;;;;;;15.10;10.00;;;;;;;16.78;84.64;101928.94;5096252;27;20142;-62
2021/08/12 05:34:08;;;;;;;15.40;10.55;;;;;;;16.75;82.63;101928.41;5102468;27;20075;-62
2021/08/12 05:36:34;;;;;;;16.80;10.70;;;;;;;16.38;86.97;101924.28;5091131;27;20131;-62
2021/08/12 05:39:01;;;;;;;17.85;9.88;;;;;;;16.72;85.62;101924.28;5096222;27;20143;-62
2021/08/12 05:41:27;;;;;;;19.00;11.07;;;;;;;16.85;86.87;101930.97;5089323;27;20047;-62
2021/08/12 05:43:54;;;;;;;20.08;12.65;;;;;;;16.81;86.45;101933.06;5099186;27;20142;-60
2021/08/12 05:46:20;;;;;;;19.23;12.55;;;;;;;17.01;85.76;101931.00;5101788;27;20564;-62
2021/08/12 05:48:47;;;;;;;18.13;12.27;;;;;;;17.22;85.46;101924.44;5091292;28;20052;-62
2021/08/12 05:51:13;;;;;;;24.35;13.30;;;;;;;17.04;86.11;101921.91;5102743;27;20138;-62
2021/08/12 05:53:40;;;;;;;26.05;15.50;;;;;;;17.05;86.83;101932.34;5091223;27;21212;-61
2021/08/12 05:56:06;;;;;;;23.90;13.70;;;;;;;17.04;86.04;101921.91;5097830;27;20541;-62
2021/08/12 05:58:37;;;;;;;24.08;14.43;;;;;;;17.57;83.40;101918.81;5096759;27;20101;-61
2021/08/12 06:01:07;;;;;;;25.95;15.70;;;;;;;17.50;84.74;101925.78;5098885;27;20482;-61
2021/08/12 06:03:34;;;;;;;24.83;15.75;;;;;;;17.88;83.35;101927.97;5099609;27;20145;-62
2021/08/12 06:06:02;;;;;;;26.65;16.10;;;;;;;18.15;81.44;101932.91;5092614;28;20157;-62
2021/08/12 06:08:30;;;;;;;23.75;15.13;;;;;;;18.16;81.82;101931.88;5091015;27;20056;-62
2021/08/12 06:10:58;;;;;;;25.53;15.90;;;;;;;18.14;81.41;101939.19;5091955;28;20082;-62
2021/08/12 06:13:26;;;;;;;30.55;16.20;;;;;;;17.53;84.50;101938.72;5100250;27;20075;-61
2021/08/12 06:15:52;;;;;;;27.48;16.17;;;;;;;18.12;82.43;101941.19;5095804;27;20138;-60
2021/08/12 06:18:20;;;;;;;28.80;17.08;;;;;;;17.75;84.85;101937.22;5103182;27;20051;-62
2021/08/12 06:20:46;;;;;;;29.15;17.95;;;;;;;17.66;86.04;101946.19;5087619;28;20047;-62
2021/08/12 06:23:13;;;;;;;34.65;19.02;;;;;;;17.46;87.10;101947.50;5097562;28;20134;-62
2021/08/12 06:25:40;;;;;;;33.95;18.92;;;;;;;18.18;83.68;101945.00;5102164;27;20142;-62
2021/08/12 06:28:08;;;;;;;36.75;20.88;;;;;;;18.32;80.29;101943.47;5093569;27;20066;-62
2021/08/12 06:30:36;;;;;;;36.30;18.70;;;;;;;18.32;82.24;101951.44;5099773;27;20043;-62
2021/08/12 06:33:04;;;;;;;36.50;21.88;;;;;;;18.09;82.14;101948.66;5093781;27;20055;-61
2021/08/12 06:35:35;;;;;;;37.20;22.23;;;;;;;18.20;80.51;101944.84;5094037;27;20044;-60
2021/08/12 06:38:03;;;;;;;38.70;23.33;;;;;;;18.35;80.21;101945.81;5091616;28;20059;-62
2021/08/12 06:40:30;;;;;;;45.55;24.25;;;;;;;18.90;76.72;101944.13;5099326;27;20135;-62
2021/08/12 06:42:57;;;;;;;33.90;21.00;;;;;;;18.27;79.00;101941.34;5099019;28;20120;-61
2021/08/12 06:45:25;;;;;;;47.90;24.77;;;;;;;18.00;81.47;101939.91;5098440;28;20654;-62
2021/08/12 06:47:52;;;;;;;44.35;25.60;;;;;;;18.08;81.92;101947.03;5081822;28;20051;-61
2021/08/12 06:50:22;;;;;;;46.50;27.55;;;;;;;18.48;81.28;101948.72;5079530;28;20083;-62
2021/08/12 06:52:48;;;;;;;44.83;25.33;;;;;;;19.22;76.19;101956.38;5100992;28;20043;-62
2021/08/12 06:55:16;;;;;;;53.97;26.10;;;;;;;18.80;77.86;101960.28;5087317;27;20054;-62
2021/08/12 06:57:42;;;;;;;45.00;24.08;;;;;;;18.64;78.61;101947.00;5100115;28;20135;-62
2021/08/12 07:00:10;;;;;;;44.85;24.77;;;;;;;18.33;80.33;101947.81;5088078;28;20093;-62
2021/08/12 07:02:37;;;;;;;47.37;25.70;;;;;;;18.41;80.97;101947.78;5101496;28;20082;-63
2021/08/12 07:05:04;;;;;;;41.95;23.33;;;;;;;18.64;80.68;101947.88;5100261;27;20367;-62
2021/08/12 07:07:30;;;;;;;45.67;24.95;;;;;;;18.62;80.35;101949.00;5099723;27;20507;-61
2021/08/12 07:09:57;;;;;;;48.40;25.20;;;;;;;18.95;79.55;101952.38;5102604;27;20074;-62
2021/08/12 07:12:23;;;;;;;43.80;23.88;;;;;;;19.25;77.87;101956.06;5093972;27;20128;-62
2021/08/12 07:14:50;;;;;;;40.28;22.92;;;;;;;18.91;79.02;101956.41;5097840;27;20060;-62
2021/08/12 07:17:16;;;;;;;48.88;25.48;;;;;;;19.51;75.06;101954.88;5103371;27;20399;-62
2021/08/12 07:19:43;;;;;;;36.50;20.48;;;;;;;19.74;74.86;101950.38;5104920;27;20667;-62
2021/08/12 07:22:09;;;;;;;31.23;17.83;;;;;;;19.84;74.86;101944.81;5104912;27;20158;-61
2021/08/12 07:24:36;;;;;;;41.42;23.35;;;;;;;19.30;77.49;101947.53;5094995;27;20556;-62
2021/08/12 07:27:02;;;;;;;44.33;22.63;;;;;;;19.07;77.10;101952.81;5098617;27;20542;-63
2021/08/12 07:29:29;;;;;;;48.13;22.77;;;;;;;19.01;77.60;101954.34;5096064;27;20067;-62
2021/08/12 07:31:55;;;;;;;44.92;22.33;;;;;;;19.34;74.44;101949.66;5109076;27;20043;-63
2021/08/12 07:34:22;;;;;;;36.97;21.25;;;;;;;19.11;76.43;101947.00;5098552;27;20138;-62
2021/08/12 07:36:48;;;;;;;39.88;20.80;;;;;;;19.53;75.29;101939.56;5106098;27;20529;-61
2021/08/12 07:39:15;;;;;;;30.08;17.63;;;;;;;20.10;71.53;101944.38;5101911;27;20130;-63
2021/08/12 07:41:42;;;;;;;47.60;20.77;;;;;;;20.72;67.47;101934.41;5095565;27;20059;-62
2021/08/12 07:44:09;;;;;;;31.63;17.88;;;;;;;20.35;68.35;101936.97;5099519;27;20040;-63
2021/08/12 07:46:36;;;;;;;37.53;19.63;;;;;;;20.78;67.22;101938.13;5100323;27;20130;-63
2021/08/12 07:49:02;;;;;;;30.63;15.80;;;;;;;20.11;67.77;101942.53;5103175;27;20380;-62
2021/08/12 07:51:29;;;;;;;30.55;16.10;;;;;;;20.39;68.02;101939.28;5099392;27;20066;-63
2021/08/12 07:53:55;;;;;;;30.67;16.02;;;;;;;20.42;66.52;101934.38;5099363;27;20479;-62
2021/08/12 07:56:22;;;;;;;29.48;15.73;;;;;;;20.37;67.70;101933.31;5102219;27;20155;-62
2021/08/12 07:58:49;;;;;;;28.38;17.42;;;;;;;20.40;66.58;101939.06;5094862;27;20071;-62
2021/08/12 08:01:16;;;;;;;30.10;16.50;;;;;;;21.13;64.71;101940.00;5105790;27;20079;-62
2021/08/12 08:03:44;;;;;;;29.45;16.42;;;;;;;21.02;64.68;101937.00;5095393;27;20063;-63
2021/08/12 08:06:11;;;;;;;29.07;16.63;;;;;;;20.80;65.84;101936.13;5107177;27;20075;-63
2021/08/12 08:08:37;;;;;;;27.75;14.48;;;;;;;20.40;68.75;101943.56;5086740;28;20286;-62
2021/08/12 08:11:04;;;;;;;40.03;18.65;;;;;;;20.60;67.05;101946.53;5106609;27;20086;-63
2021/08/12 08:13:31;;;;;;;27.30;15.13;;;;;;;20.84;67.01;101940.88;5095491;27;20534;-63
2021/08/12 08:15:58;;;;;;;27.58;14.50;;;;;;;20.58;67.18;101940.53;5105680;27;20482;-62
2021/08/12 08:18:28;;;;;;;26.20;13.18;;;;;;;20.64;67.00;101939.81;5101607;27;20139;-63
2021/08/12 08:20:55;;;;;;;25.15;14.38;;;;;;;20.93;66.40;101944.25;5095892;27;20461;-62
2021/08/12 08:23:21;;;;;;;30.55;13.52;;;;;;;21.17;66.84;101943.09;5097609;28;20040;-61
2021/08/12 08:25:48;;;;;;;23.83;13.85;;;;;;;21.29;64.54;101954.91;5095770;27;20089;-62
2021/08/12 08:28:14;;;;;;;25.85;14.45;;;;;;;22.20;61.03;101948.06;5082498;28;20090;-63
2021/08/12 08:30:41;;;;;;;29.20;14.38;;;;;;;22.64;59.39;101946.88;5101746;27;20087;-62
2021/08/12 08:33:08;;;;;;;24.55;13.80;;;;;;;23.25;57.61;101949.59;5103869;27;20845;-62
2021/08/12 08:35:35;;;;;;;23.35;14.10;;;;;;;23.22;56.37;101944.63;5100302;27;20074;-63
2021/08/12 08:38:02;;;;;;;26.50;14.32;;;;;;;23.42;55.96;101947.34;5094501;27;20090;-62
2021/08/12 08:40:29;;;;;;;22.13;13.48;;;;;;;23.86;55.61;101945.91;5104940;27;20757;-62
2021/08/12 08:42:56;;;;;;;28.88;13.52;;;;;;;23.53;55.48;101945.91;5093611;27;20055;-62
2021/08/12 08:45:28;;;;;;;23.48;13.25;;;;;;;24.38;53.53;101947.88;5103395;27;20054;-61
2021/08/12 08:47:56;;;;;;;24.13;13.27;;;;;;;24.34;52.79;101943.97;5097028;27;20100;-62
2021/08/12 08:50:25;;;;;;;26.30;13.55;;;;;;;24.26;53.75;101936.97;5099413;27;20078;-62
2021/08/12 08:52:53;;;;;;;25.75;13.55;;;;;;;24.28;52.29;101942.94;5092050;28;20099;-62
2021/08/12 08:55:22;;;;;;;24.40;13.23;;;;;;;24.26;52.49;101943.16;5105357;27;20044;-62
2021/08/12 08:57:54;;;;;;;20.70;11.35;;;;;;;25.29;52.81;101941.50;5101688;27;20102;-62
2021/08/12 09:00:21;;;;;;;25.13;11.43;;;;;;;25.36;51.94;101942.25;5099074;27;20075;-62
2021/08/12 09:02:49;;;;;;;21.17;11.90;;;;;;;25.36;49.97;101946.81;5099011;27;20043;-62
2021/08/12 09:05:16;;;;;;;23.20;11.73;;;;;;;25.49;50.03;101946.72;5097396;27;20051;-62
2021/08/12 09:07:44;;;;;;;19.88;10.75;;;;;;;25.34;51.35;101935.47;5103261;27;20079;-62
2021/08/12 09:10:15;;;;;;;15.68;10.70;;;;;;;26.06;48.79;101943.94;5098400;27;20547;-62
2021/08/12 09:12:41;;;;;;;17.52;10.80;;;;;;;25.42;51.16;101949.47;5099701;27;20055;-62
2021/08/12 09:15:09;;;;;;;23.02;11.40;;;;;;;25.11;50.56;101946.75;5092411;27;20404;-62
2021/08/12 09:17:36;;;;;;;;;;;;;;;25.88;49.88;101944.72;5097018;27;20047;-62
2021/08/12 09:20:07;;;;;;;22.42;10.18;;;;;;;25.43;50.65;101950.28;5104336;27;20002;-62
2021/08/12 09:23:13;;;;;;;17.95;9.38;;;;;;;26.17;49.68;101947.78;5090159;28;20134;-62
2021/08/12 09:25:46;;;;;;;17.88;9.43;;;;;;;25.52;48.31;101942.75;5008469;28;20148;-62
2021/08/12 09:28:29;;;;;;;16.92;8.63;;;;;;;25.39;48.46;101952.56;5002674;28;20152;-62
2021/08/12 09:30:58;;;;;;;18.35;10.15;;;;;;;25.37;48.69;101945.78;5058400;28;20044;-62
2021/08/12 09:33:31;;;;;;;20.05;9.98;;;;;;;25.58;49.14;101947.25;5095064;27;20130;-60
2021/08/12 09:35:58;;;;;;;21.27;10.23;;;;;;;25.55;49.29;101926.22;5101175;27;20074;-61
2021/08/12 09:38:24;;;;;;;16.92;9.93;;;;;;;25.87;49.21;101940.38;5093910;27;20047;-62
2021/08/12 09:40:54;;;;;;;15.30;8.77;;;;;;;25.98;49.88;101939.69;5104704;27;20146;-62
2021/08/12 09:43:22;;;;;;;18.58;10.90;;;;;;;25.84;47.75;101947.03;5101116;27;20076;-63
2021/08/12 09:45:49;;;;;;;21.00;10.10;;;;;;;26.40;46.78;101931.78;5098128;27;20079;-63
2021/08/12 09:48:18;;;;;;;18.27;10.98;;;;;;;26.33;47.40;101938.28;5103574;27;20050;-62
2021/08/12 09:50:57;;;;;;;18.52;9.93;;;;;;;27.47;45.95;101938.41;5098404;27;20071;-63
2021/08/12 09:53:24;;;;;;;18.67;10.60;;;;;;;26.75;46.27;101936.53;5098518;28;20179;-60
2021/08/12 09:55:52;;;;;;;21.40;10.90;;;;;;;26.86;46.56;101926.06;5086703;27;20329;-62
2021/08/12 09:58:19;;;;;;;17.73;9.52;;;;;;;26.65;46.21;101930.06;5104060;27;20669;-62
2021/08/12 10:00:48;;;;;;;16.88;9.60;;;;;;;27.55;44.18;101935.38;5091937;27;20147;-63
2021/08/12 10:03:26;;;;;;;18.17;9.05;;;;;;;27.79;43.15;101933.47;5103388;27;20047;-63
2021/08/12 10:05:55;;;;;;;15.65;7.95;;;;;;;27.15;45.24;101938.69;5099065;27;20142;-63
2021/08/12 10:08:35;;;;;;;15.95;8.15;;;;;;;26.59;45.25;101942.56;5095249;27;20079;-63
2021/08/12 10:11:21;;;;;;;15.98;8.00;;;;;;;26.63;45.80;101941.88;5097959;27;20047;-63
2021/08/12 10:13:50;;;;;;;14.57;8.52;;;;;;;26.92;45.70;101942.13;5101257;27;20128;-62
2021/08/12 10:16:17;;;;;;;10.60;7.18;;;;;;;27.68;46.03;101949.66;5103192;27;20178;-63
2021/08/12 10:18:46;;;;;;;16.50;8.25;;;;;;;27.55;43.95;101932.66;5097727;27;20154;-63
2021/08/12 10:21:15;;;;;;;13.88;7.82;;;;;;;27.64;44.65;101937.72;5078746;28;20082;-63
2021/08/12 10:23:44;;;;;;;15.98;8.90;;;;;;;28.10;43.57;101936.09;5070989;28;20087;-63
2021/08/12 10:26:12;;;;;;;12.15;8.25;;;;;;;27.57;43.95;101933.25;5100603;27;20198;-62
2021/08/12 10:28:41;;;;;;;;;;;;;;;27.94;44.44;101937.63;5102071;27;20135;-62
2021/08/12 10:31:08;;;;;;;16.88;8.95;;;;;;;27.94;44.13;101924.97;5099919;27;20014;-61
2021/08/12 10:33:38;;;;;;;21.52;9.05;;;;;;;27.91;44.31;101936.25;5083053;28;20049;-63
2021/08/12 10:36:04;;;;;;;16.05;8.80;;;;;;;28.08;43.51;101938.19;5088288;27;20608;-63
2021/08/12 10:38:31;;;;;;;13.70;8.23;;;;;;;28.08;44.61;101933.63;5098225;27;20569;-59
2021/08/12 10:40:57;;;;;;;15.02;9.70;;;;;;;27.89;43.80;101929.41;5093132;27;20138;-62
2021/08/12 10:43:28;;;;;;;14.88;9.90;;;;;;;28.23;44.24;101927.75;5081641;28;20138;-61
2021/08/12 10:46:02;;;;;;;16.65;8.65;;;;;;;28.38;43.23;101924.50;5092092;28;20051;-62
2021/08/12 10:48:32;;;;;;;13.88;8.48;;;;;;;28.92;43.08;101916.13;5101115;28;20498;-62
2021/08/12 10:51:11;;;;;;;16.92;8.57;;;;;;;28.65;43.48;101919.41;5088865;28;20062;-62
2021/08/12 10:54:05;;;;;;;13.90;8.25;;;;;;;28.65;43.89;101915.91;5077614;28;20090;-63
2021/08/12 10:56:39;;;;;;;18.83;9.27;;;;;;;29.02;41.63;101910.91;5098638;28;20090;-62
2021/08/12 10:59:06;;;;;;;14.82;9.75;;;;;;;28.94;43.34;101909.41;5100586;28;20060;-63
2021/08/12 11:01:37;;;;;;;15.13;9.65;;;;;;;28.59;41.99;101914.97;5101102;28;20163;-62
2021/08/12 11:04:05;;;;;;;11.77;8.77;;;;;;;29.08;42.37;101918.03;5088967;28;20051;-63
2021/08/12 11:06:40;;;;;;;15.45;8.55;;;;;;;29.09;43.84;101916.13;5092952;28;20138;-63
2021/08/12 11:09:08;;;;;;;15.25;9.95;;;;;;;28.39;42.50;101924.28;5097636;27;20107;-63
2021/08/12 11:11:34;;;;;;;13.38;9.10;;;;;;;28.56;43.40;101926.25;5102095;28;20094;-63
2021/08/12 11:14:07;;;;;;;17.63;9.23;;;;;;;28.99;41.86;101916.78;5096023;27;20525;-63
2021/08/12 11:16:40;;;;;;;14.07;9.40;;;;;;;28.85;41.90;101923.56;5099479;28;20142;-62
2021/08/12 11:19:32;;;;;;;16.92;10.05;;;;;;;28.29;44.17;101921.38;5097273;28;20060;-62
2021/08/12 11:21:59;;;;;;;17.17;9.63;;;;;;;28.15;43.56;101925.41;5101192;28;20134;-62